LGAV/ATH METAR and TAF weather

Enter ICAO airport designator
Station Type Date Time Source
LGAV METAR 2019/08/21 22:20 UTC NOAA

LGAV 212220Z VRB01KT CAVOK 25/13 Q1016 NOSIG


Station Type Date Time Source
LGAV Decoded METAR 2019/08/21 22:20 UTC NOAA

Station name not available
Aug 21, 2019 - 06:20 PM EDT / 2019.08.21 2220 UTC
Wind: Variable at 1 MPH (1 KT):0
Visibility: greater than 7 mile(s):0
Temperature: 77 F (25 C)
Dew Point: 55 F (13 C)
Relative Humidity: 47%
Pressure (altimeter): 30.00 in. Hg (1016 hPa)
ob: LGAV 212220Z VRB01KT CAVOK 25/13 Q1016 NOSIG
cycle: 22

Station Type Date Time Source
LGAV TAF 2019/08/21 18:12 UTC NOAA

TAF TAF LGAV 211700Z 2118/2218 02016KT 9999 FEW025
TEMPO 2206/2216 02020G30KT

Example: see airport list